EST,Max TemperatureF,Mean TemperatureF,Min TemperatureF,Max Dew PointF,MeanDew PointF,Min DewpointF,Max Humidity, Mean Humidity, Min Humidity, Max Sea Level PressureIn, Mean Sea Level PressureIn, Min Sea Level PressureIn, Max VisibilityMiles, Mean VisibilityMiles, Min VisibilityMiles, Max Wind SpeedMPH, Mean Wind SpeedMPH, Max Gust SpeedMPH,PrecipitationIn, CloudCover, Events, WindDirDegrees
2014-1-1,15,-2,-19,2,-9,-22,87,70,53,30.45,30.29,30.12,10,10,8,18,4,29,T,1,,275
2014-1-2,-5,-7,-10,-13,-17,-19,72,65,57,30.53,30.35,30.09,10,6,1,23,11,29,0.05,8,Snow,23
2014-1-3,1,-4,-10,-12,-16,-18,72,63,53,30.34,30.05,29.93,10,4,0,24,17,29,T,6,Snow,351
2014-1-4,14,-3,-20,2,-10,-25,87,72,57,30.47,30.33,30.19,10,10,10,13,3,16,0.00,4,,227
2014-1-5,26,13,0,22,12,-1,96,78,60,30.31,30.25,30.14,10,10,8,7,1,8,T,7,,27
2014-1-6,52,39,26,50,39,16,100,81,61,30.11,29.51,29.18,10,4,0,26,11,41,1.13,8,Fog-Rain,160
2014-1-7,30,19,7,10,-4,-13,62,46,30,29.97,29.67,29.32,10,10,10,32,15,48,0.00,3,,273
2014-1-8,21,13,4,1,-3,-10,73,56,39,30.35,30.23,30.01,10,10,10,18,9,24,0.00,0,Fog,229
2014-1-9,22,13,3,2,-1,-2,86,61,36,30.63,30.48,30.33,10,10,9,21,5,27,0.00,0,,252
2014-1-10,28,14,-1,19,8,-6,87,71,55,30.59,30.43,30.30,10,10,7,14,1,16,T,5,Snow,220
2014-1-11,49,33,16,47,33,14,100,92,84,30.29,29.74,29.17,10,3,0,31,6,41,0.63,8,Fog-Rain,178
2014-1-12,49,44,38,47,32,22,93,71,48,29.81,29.40,29.15,10,9,0,20,10,29,0.09,5,Fog-Rain,264
2014-1-13,43,36,30,35,26,22,85,65,45,30.05,29.97,29.84,10,10,10,17,8,22,0.00,5,,200
2014-1-14,46,43,39,43,40,37,100,90,79,29.87,29.72,29.54,10,5,0,17,9,22,0.81,8,Fog-Rain,182
2014-1-15,45,38,30,38,34,30,100,83,65,30.01,29.90,29.60,10,8,0,17,8,23,0.06,6,Fog-Rain,213
2014-1-16,37,35,32,34,32,29,100,91,82,29.95,29.92,29.90,10,6,0,9,4,12,0.00,8,Fog,17
2014-1-17,43,35,26,39,32,26,92,84,75,29.95,29.91,29.86,10,8,1,15,4,19,0.01,6,Rain,175
2014-1-18,34,29,24,28,27,23,92,84,75,29.92,29.80,29.66,10,9,5,8,1,9,0.00,8,,5
2014-1-19,32,28,24,29,26,18,92,80,68,29.68,29.50,29.36,10,5,0,14,2,22,0.16,7,Fog-Snow,230
2014-1-20,43,24,5,25,15,-10,81,66,50,29.86,29.56,29.41,10,8,1,21,11,31,T,6,Snow,304
2014-1-21,9,4,-1,-8,-10,-15,62,51,39,30.09,30.03,29.87,10,10,10,17,11,22,0.00,4,,328
2014-1-22,7,3,-1,-6,-9,-11,65,60,55,29.98,29.80,29.63,10,10,9,26,17,32,T,5,,352
2014-1-23,16,6,-4,-3,-8,-13,65,56,46,30.05,29.94,29.83,10,10,10,15,8,19,0.00,2,,288
2014-1-24,13,6,-2,-5,-9,-11,69,54,38,30.17,30.10,30.02,10,10,10,12,6,16,0.00,1,,275
2014-1-25,37,19,1,31,24,-7,92,75,57,29.99,29.50,29.17,10,4,0,28,10,39,0.18,8,Fog-Rain-Snow,190
2014-1-26,32,19,5,23,2,-14,74,52,30,29.91,29.54,29.13,10,10,2,25,11,39,T,5,Snow,264
2014-1-27,42,27,11,37,15,-8,92,64,35,29.91,29.64,29.41,10,7,2,30,8,39,0.08,8,Rain-Snow,267
2014-1-28,16,11,5,-2,-8,-13,69,50,31,30.26,30.14,29.92,10,10,10,22,6,33,0.00,2,,245
2014-1-29,21,13,5,3,-3,-8,80,56,31,30.19,30.03,29.87,10,10,10,10,2,14,0.00,3,,259
2014-1-30,25,16,6,11,4,-4,74,57,40,30.39,30.27,30.12,10,10,10,12,7,15,0.00,1,,227
2014-1-31,36,25,14,21,15,11,80,59,38,30.14,30.02,29.93,10,10,10,18,6,25,0.00,5,,226